M I D A S
Marine Information and Data Acquisition System
Tripno 2328 of the Zeeleeuw from 2012-06-13 06:36:32 to 2012-06-13 15:00:56
Back to CruiseResearch ActivitiesStationsMapUnderway DataData graphs

EquipmentUnitsComments
TimeDGPSUTC
LatitudeDGPSDM.mWGS84
LongitudeDGPSDM.mWGS84
SpeedMeteo Stationm/sRelative wind speed
DirectionMeteo StationdegRelative wind direction
TemperatureMeteo Stationdeg CelciusAir temperature
PressureMeteo StationPaAtmospheric pressure
HumidityMeteo Station%Relative humidity
Missing or incorrect values are displayed as -999
Metereological data collected by the RV Zeeleeuw from 2012-06-13 06:15:50 to 2012-06-13 15:20:09
Time Latitude Longitude Speed Direction Temperature Pressure Humidity
2012-06-13 06:16 51°13.641 2°55.96 -999 277 11.9 101430 39
2012-06-13 06:17 51°13.66 2°55.88 -999 54 11.8 101430 37
2012-06-13 06:18 51°13.699 2°55.784 4.6 79 11.8 101420 39
2012-06-13 06:19 51°13.753 2°55.69 0.1 54 11.8 101420 39
2012-06-13 06:20 51°13.831 2°55.615 2.9 75 11.8 101430 39
2012-06-13 06:21 51°13.908 2°55.609 6.1 51 11.8 101420 40
2012-06-13 06:22 51°13.948 2°55.659 4.7 39 12.1 101420 39
2012-06-13 06:23 51°13.976 2°55.585 8.1 278 12 101410 39
2012-06-13 06:24 51°14.086 2°55.471 9.8 344 11.9 101410 39
2012-06-13 06:25 51°14.211 2°55.35 11.8 284 11.8 101400 40
2012-06-13 06:26 51°14.349 2°55.212 8.4 336 11.9 101400 42
2012-06-13 06:27 51°14.49 2°55.057 9.6 283 11.7 101410 41
2012-06-13 06:28 51°14.637 2°54.937 8.5 343 11.8 101390 43
2012-06-13 06:29 51°14.771 2°54.794 9.5 281 11.8 101390 41
2012-06-13 06:30 51°14.91 2°54.64 8.4 347 11.7 101410 41
2012-06-13 06:31 51°15.051 2°54.54 8.5 286 11.7 101400 41
2012-06-13 06:32 51°15.123 2°54.581 5.8 308 11.8 101420 40
2012-06-13 06:33 51°15.135 2°54.613 6.7 282 11.9 101430 40
2012-06-13 06:34 51°15.152 2°54.677 6.9 303 11.9 101420 41
2012-06-13 06:35 51°15.208 2°54.716 7.6 354 11.9 101410 41
2012-06-13 06:36 51°15.257 2°54.635 6.3 360 11.9 101410 41
2012-06-13 06:37 51°15.347 2°54.516 11.5 281 11.9 101410 42
2012-06-13 06:38 51°15.458 2°54.406 10.7 349 11.8 101400 40
2012-06-13 06:39 51°15.569 2°54.289 9.2 281 11.7 101400 40
2012-06-13 06:40 51°15.673 2°54.163 8.9 355 11.7 101400 40
2012-06-13 06:41 51°15.762 2°54.014 8.2 280 11.8 101410 39
2012-06-13 06:42 51°15.842 2°53.858 8.8 354 11.7 101400 40
2012-06-13 06:43 51°15.931 2°53.702 13.7 353 11.7 101420 41
2012-06-13 06:44 51°16.022 2°53.556 7.7 352 11.7 101400 41
2012-06-13 06:45 51°16.112 2°53.409 10.9 352 11.7 101420 42
2012-06-13 06:46 51°16.2 2°53.252 8.3 355 11.7 101410 42
2012-06-13 06:47 51°16.296 2°53.107 8.3 282 11.7 101400 41
2012-06-13 06:48 51°16.409 2°52.994 11.1 347 11.8 101410 42
2012-06-13 06:49 51°16.525 2°52.893 9.6 286 11.8 101420 42
2012-06-13 06:50 51°16.655 2°52.81 5 340 11.8 101420 42
2012-06-13 06:51 51°16.777 2°52.724 10.5 281 11.7 101420 41
2012-06-13 06:52 51°16.9 2°52.625 11 344 11.8 101430 43
2012-06-13 06:53 51°17.018 2°52.524 7.7 283 11.7 101420 41
2012-06-13 06:54 51°17.143 2°52.431 6.9 279 11.7 101420 39
2012-06-13 06:55 51°17.301 2°52.329 12.3 -999 11.7 101430 40
2012-06-13 06:56 51°17.48 2°52.191 9.7 340 11.9 101420 43
2012-06-13 06:57 51°17.648 2°52.024 5.5 -999 11.8 101420 40
2012-06-13 06:58 51°17.806 2°51.84 5.9 340 11.8 101420 43
2012-06-13 06:59 51°17.974 2°51.663 5 283 11.8 101420 42
2012-06-13 07:00 51°18.138 2°51.496 8.2 341 11.8 101430 42
2012-06-13 07:01 51°18.307 2°51.324 8.8 281 11.7 101420 42
2012-06-13 07:02 51°18.472 2°51.161 9.2 339 11.8 101430 43
2012-06-13 07:03 51°18.636 2°50.984 12.7 281 11.7 101420 41
2012-06-13 07:04 51°18.798 2°50.805 12.6 280 11.7 101430 41
2012-06-13 07:05 51°18.974 2°50.643 13.2 280 11.7 101430 40
2012-06-13 07:06 51°19.141 2°50.481 14.5 341 11.8 101440 42
2012-06-13 07:07 51°19.306 2°50.296 5.7 337 11.8 101430 43
2012-06-13 07:08 51°19.471 2°50.125 5.7 335 11.8 101430 42
2012-06-13 07:09 51°19.632 2°49.959 13 280 11.9 101440 43
2012-06-13 07:10 51°19.795 2°49.782 9.5 335 11.8 101440 42
2012-06-13 07:11 51°19.961 2°49.628 15.2 284 11.8 101430 42
2012-06-13 07:12 51°20.129 2°49.458 13 339 11.8 101430 41
2012-06-13 07:13 51°20.292 2°49.292 18.5 342 11.7 101440 39
2012-06-13 07:14 51°20.456 2°49.124 10.5 279 11.8 101450 42
2012-06-13 07:15 51°20.625 2°48.951 12.6 338 11.8 101450 42
2012-06-13 07:16 51°20.79 2°48.789 5.2 336 11.8 101440 42
2012-06-13 07:17 51°20.963 2°48.62 8.9 340 11.8 101450 42
2012-06-13 07:18 51°21.128 2°48.45 10.2 336 11.8 101450 43
2012-06-13 07:19 51°21.294 2°48.273 6.1 338 11.9 101450 43
2012-06-13 07:20 51°21.468 2°48.109 9.6 281 11.8 101440 41
2012-06-13 07:21 51°21.643 2°47.954 11.2 338 11.8 101450 40
2012-06-13 07:22 51°21.807 2°47.776 14.4 282 11.8 101450 42
2012-06-13 07:23 51°21.966 2°47.598 10.1 340 11.8 101450 40
2012-06-13 07:24 51°22.133 2°47.436 8.3 341 11.8 101450 40
2012-06-13 07:25 51°22.302 2°47.283 13.2 340 11.9 101450 41
2012-06-13 07:26 51°22.471 2°47.114 12 281 11.8 101440 42
2012-06-13 07:27 51°22.64 2°46.957 10.3 285 11.8 101460 40
2012-06-13 07:28 51°22.809 2°46.781 9.7 344 11.8 101460 42
2012-06-13 07:29 51°22.976 2°46.62 14 284 11.7 101460 40
2012-06-13 07:30 51°23.148 2°46.449 13.3 344 11.7 101450 41
2012-06-13 07:31 51°23.289 2°46.244 11.9 279 11.6 101460 40
2012-06-13 07:32 51°23.395 2°45.99 8.7 347 11.6 101470 40
2012-06-13 07:33 51°23.524 2°45.748 12.3 279 11.6 101480 41
2012-06-13 07:34 51°23.656 2°45.517 9.5 279 11.7 101480 42
2012-06-13 07:35 51°23.786 2°45.288 11.5 347 11.6 101460 41
2012-06-13 07:36 51°23.917 2°45.056 4.4 348 11.6 101460 41
2012-06-13 07:37 51°24.034 2°44.807 9.2 346 11.6 101480 40
2012-06-13 07:38 51°24.152 2°44.559 12.8 282 11.6 101470 41
2012-06-13 07:39 51°24.268 2°44.318 7.9 347 11.6 101480 42
2012-06-13 07:40 51°24.33 2°44.183 8 354 11.5 101470 40
2012-06-13 07:41 51°24.381 2°44.094 8.6 351 11.6 101480 41
2012-06-13 07:42 51°24.432 2°44.025 6.2 279 11.5 101490 41
2012-06-13 07:43 51°24.476 2°43.956 6.7 354 11.5 101490 42
2012-06-13 07:44 51°24.509 2°43.881 6.9 358 11.5 101500 41
2012-06-13 07:45 51°24.549 2°43.815 6.1 345 11.5 101490 39
2012-06-13 07:46 51°24.598 2°43.763 6.3 280 11.5 101500 39
2012-06-13 07:47 51°24.631 2°43.712 6.4 357 11.5 101490 40
2012-06-13 07:48 51°24.65 2°43.695 4.9 -999 11.5 101500 41
2012-06-13 07:49 51°24.664 2°43.698 5.2 355 11.5 101510 42
2012-06-13 07:50 51°24.668 2°43.715 3.8 359 11.6 101510 43
2012-06-13 07:51 51°24.67 2°43.732 5.5 9 11.6 101510 41
2012-06-13 07:52 51°24.673 2°43.752 2.3 16 11.6 101510 42
2012-06-13 07:53 51°24.677 2°43.771 4.1 18 11.6 101510 40
2012-06-13 07:54 51°24.673 2°43.752 3.4 -999 11.7 101510 42
2012-06-13 07:55 51°24.672 2°43.725 4.7 11 11.6 101510 41
2012-06-13 07:56 51°24.677 2°43.697 5.3 -999 11.6 101510 41
2012-06-13 07:57 51°24.684 2°43.694 4.9 10 11.7 101510 41
2012-06-13 07:58 51°24.69 2°43.71 -999 5 11.7 101510 41
2012-06-13 07:59 51°24.692 2°43.74 2.6 20 11.7 101520 43
2012-06-13 08:00 51°24.695 2°43.764 4.2 -999 11.6 101520 42
2012-06-13 08:01 51°24.678 2°43.752 -999 39 11.7 101510 42
2012-06-13 08:02 51°24.65 2°43.688 0.1 11 11.7 101520 42
2012-06-13 08:03 51°24.658 2°43.683 3 -999 11.6 101520 43
2012-06-13 08:04 51°24.661 2°43.705 4 7 11.7 101520 43
2012-06-13 08:05 51°24.665 2°43.719 5.2 -999 11.7 101510 43
2012-06-13 08:06 51°24.668 2°43.727 -999 8 11.7 101520 43
2012-06-13 08:07 51°24.672 2°43.717 4.7 -999 11.7 101520 42
2012-06-13 08:08 51°24.673 2°43.713 -999 27 11.7 101520 43
2012-06-13 08:09 51°24.678 2°43.722 -999 -999 11.7 101530 40
2012-06-13 08:10 51°24.683 2°43.727 5.4 -999 11.7 101520 43
2012-06-13 08:11 51°24.68 2°43.697 0.1 33 11.6 101520 41
2012-06-13 08:12 51°24.678 2°43.686 -999 24 11.7 101530 41
2012-06-13 08:13 51°24.681 2°43.692 4.3 -999 11.7 101520 42
2012-06-13 08:14 51°24.686 2°43.712 1.1 -999 11.7 101520 42
2012-06-13 08:15 51°24.69 2°43.732 1.6 26 11.7 101510 42
2012-06-13 08:16 51°24.69 2°43.737 2.3 30 11.7 101520 42
2012-06-13 08:17 51°24.664 2°43.717 0.1 30 11.8 101520 40
2012-06-13 08:18 51°24.658 2°43.698 -999 -999 11.8 101520 41
2012-06-13 08:19 51°24.662 2°43.703 -999 22 11.7 101530 41
2012-06-13 08:20 51°24.668 2°43.71 -999 -999 11.8 101520 42
2012-06-13 08:21 51°24.675 2°43.722 -999 -999 11.8 101530 42
2012-06-13 08:22 51°24.68 2°43.737 -999 -999 11.8 101520 42
2012-06-13 08:23 51°24.685 2°43.752 -999 -999 11.8 101520 43
2012-06-13 08:24 51°24.688 2°43.769 -999 -999 11.9 101520 44
2012-06-13 08:25 51°24.691 2°43.787 -999 -999 11.9 101520 42
2012-06-13 08:26 51°24.694 2°43.805 -999 -999 11.8 101520 41
2012-06-13 08:27 51°24.697 2°43.823 -999 28 11.8 101520 41
2012-06-13 08:28 51°24.701 2°43.842 -999 31 11.8 101520 41
2012-06-13 08:29 51°24.704 2°43.86 4 26 11.8 101520 41
2012-06-13 08:30 51°24.706 2°43.868 3.7 18 11.8 101530 39
2012-06-13 08:31 51°24.718 2°43.848 4.6 -999 11.8 101530 39
2012-06-13 08:32 51°24.758 2°43.83 6 285 11.7 101510 39
2012-06-13 08:33 51°24.836 2°43.873 6.2 330 11.8 101520 38
2012-06-13 08:34 51°24.988 2°43.884 9.6 282 11.9 101510 40
2012-06-13 08:35 51°25.181 2°43.978 13.9 285 12 101520 42
2012-06-13 08:36 51°25.373 2°44.125 10.3 286 12 101500 42
2012-06-13 08:37 51°25.554 2°44.304 10.5 283 12.1 101510 42
2012-06-13 08:38 51°25.711 2°44.542 11.8 -999 12.1 101500 42
2012-06-13 08:39 51°25.858 2°44.775 13.7 283 12.1 101520 40
2012-06-13 08:40 51°26.022 2°45.001 11.8 -999 12.1 101500 40
2012-06-13 08:41 51°26.181 2°45.216 8.5 277 12.2 101500 38
2012-06-13 08:42 51°26.339 2°45.454 8.4 279 12.2 101520 39
2012-06-13 08:43 51°26.498 2°45.675 9.4 -999 12.2 101510 40
2012-06-13 08:44 51°26.673 2°45.875 12.8 282 12.2 101510 40
2012-06-13 08:45 51°26.842 2°46.083 10.9 283 12.2 101510 40
2012-06-13 08:46 51°27.008 2°46.287 11.1 306 12.1 101520 39
2012-06-13 08:47 51°27.181 2°46.492 9 280 12.1 101500 40
2012-06-13 08:48 51°27.351 2°46.698 9.1 304 12.1 101510 40
2012-06-13 08:49 51°27.517 2°46.915 9.9 284 12.2 101520 40
2012-06-13 08:50 51°27.685 2°47.125 10.9 304 12.3 101510 42
2012-06-13 08:51 51°27.855 2°47.327 11.3 285 12.2 101520 41
2012-06-13 08:52 51°28.025 2°47.544 9.3 305 12.2 101520 40
2012-06-13 08:53 51°28.195 2°47.766 10.9 279 12.2 101520 41
2012-06-13 08:54 51°28.374 2°47.966 8.8 281 12.2 101510 40
2012-06-13 08:55 51°28.545 2°48.171 11.4 309 12.2 101540 40
2012-06-13 08:56 51°28.721 2°48.387 9 283 12.2 101530 40
2012-06-13 08:57 51°28.89 2°48.612 10.3 303 12.2 101520 39
2012-06-13 08:58 51°29.056 2°48.83 8.2 278 12.2 101540 40
2012-06-13 08:59 51°29.229 2°49.044 8.2 304 12.3 101540 41
2012-06-13 09:00 51°29.4 2°49.268 9.2 282 12.1 101520 40
2012-06-13 09:01 51°29.549 2°49.528 9.9 308 12.2 101530 42
2012-06-13 09:02 51°29.69 2°49.789 8.1 281 12.1 101540 40
2012-06-13 09:03 51°29.849 2°50.035 7.7 304 12.1 101530 41
2012-06-13 09:04 51°30.001 2°50.276 7.9 284 12.1 101530 40
2012-06-13 09:05 51°30.156 2°50.529 10.5 309 12.1 101520 39
2012-06-13 09:06 51°30.311 2°50.769 9 279 12.1 101540 40
2012-06-13 09:07 51°30.459 2°51.023 13.9 307 12.1 101520 40
2012-06-13 09:08 51°30.613 2°51.269 8.2 286 12.2 101530 42
2012-06-13 09:09 51°30.773 2°51.517 10.6 307 12.1 101540 40
2012-06-13 09:10 51°30.928 2°51.767 9.3 303 12.2 101540 41
2012-06-13 09:11 51°31.056 2°52.024 9.6 301 12.2 101540 40
2012-06-13 09:12 51°31.149 2°52.21 8.3 280 12.2 101550 41
2012-06-13 09:13 51°31.202 2°52.329 5.2 286 12.2 101550 39
2012-06-13 09:14 51°31.227 2°52.446 4.5 305 12.2 101550 42
2012-06-13 09:15 51°31.242 2°52.459 0.7 305 12.3 101560 40
2012-06-13 09:16 51°31.256 2°52.462 4 299 12.2 101570 39
2012-06-13 09:17 51°31.267 2°52.469 0.1 39 12.2 101560 39
2012-06-13 09:18 51°31.273 2°52.485 -999 55 12.1 101570 40
2012-06-13 09:19 51°31.273 2°52.504 -999 78 12.1 101570 41
2012-06-13 09:20 51°31.262 2°52.521 -999 78 12.3 101570 43
2012-06-13 09:21 51°31.249 2°52.529 -999 45 12.2 101580 39
2012-06-13 09:22 51°31.24 2°52.527 -999 34 12.1 101580 41
2012-06-13 09:23 51°31.239 2°52.527 -999 28 12 101580 41
2012-06-13 09:24 51°31.243 2°52.53 -999 21 11.9 101570 40
2012-06-13 09:25 51°31.247 2°52.534 -999 18 12 101580 40
2012-06-13 09:26 51°31.252 2°52.533 -999 19 12 101570 40
2012-06-13 09:27 51°31.257 2°52.526 -999 18 12 101570 41
2012-06-13 09:28 51°31.26 2°52.517 -999 18 12 101570 42
2012-06-13 09:29 51°31.264 2°52.511 2.9 15 12 101580 40
2012-06-13 09:30 51°31.266 2°52.506 5 23 11.9 101580 40
2012-06-13 09:31 51°31.268 2°52.503 -999 23 12 101580 41
2012-06-13 09:32 51°31.27 2°52.499 0.1 24 12 101580 40
2012-06-13 09:33 51°31.27 2°52.493 -999 23 11.9 101590 40
2012-06-13 09:34 51°31.272 2°52.488 -999 24 11.9 101590 40
2012-06-13 09:35 51°31.272 2°52.485 -999 29 12 101580 41
2012-06-13 09:36 51°31.271 2°52.486 -999 34 11.9 101590 40
2012-06-13 09:37 51°31.272 2°52.486 -999 29 12 101590 40
2012-06-13 09:38 51°31.272 2°52.487 -999 36 11.9 101590 41
2012-06-13 09:39 51°31.271 2°52.487 -999 28 12 101600 43
2012-06-13 09:40 51°31.272 2°52.487 -999 31 12 101590 43
2012-06-13 09:41 51°31.271 2°52.487 -999 23 12 101600 42
2012-06-13 09:42 51°31.27 2°52.488 -999 23 12 101600 43
2012-06-13 09:43 51°31.27 2°52.489 -999 26 12 101600 42
2012-06-13 09:44 51°31.27 2°52.49 -999 26 12.1 101600 42
2012-06-13 09:45 51°31.27 2°52.491 -999 33 12.1 101600 41
2012-06-13 09:46 51°31.27 2°52.492 -999 29 12.1 101600 42
2012-06-13 09:47 51°31.27 2°52.49 -999 30 12 101600 41
2012-06-13 09:48 51°31.27 2°52.49 -999 24 12 101600 42
2012-06-13 09:49 51°31.27 2°52.49 -999 25 12 101600 40
2012-06-13 09:50 51°31.27 2°52.49 -999 23 12 101600 41
2012-06-13 09:51 51°31.27 2°52.49 -999 26 12 101600 40
2012-06-13 09:52 51°31.271 2°52.49 -999 22 12.1 101600 42
2012-06-13 09:53 51°31.272 2°52.49 -999 19 12 101600 39
2012-06-13 09:54 51°31.272 2°52.488 -999 26 12 101600 40
2012-06-13 09:55 51°31.271 2°52.486 -999 33 12.1 101600 42
2012-06-13 09:56 51°31.271 2°52.485 -999 30 12.2 101600 43
2012-06-13 09:57 51°31.27 2°52.484 -999 27 12.2 101610 43
2012-06-13 09:58 51°31.271 2°52.481 -999 30 12.2 101600 42
2012-06-13 09:59 51°31.27 2°52.481 -999 32 12.1 101600 42
2012-06-13 10:00 51°31.27 2°52.481 -999 28 12 101600 41
2012-06-13 10:01 51°31.271 2°52.482 -999 29 12 101610 40
2012-06-13 10:02 51°31.271 2°52.483 -999 23 12 101600 42
2012-06-13 10:03 51°31.271 2°52.482 4 28 12.1 101600 43
2012-06-13 10:04 51°31.271 2°52.483 -999 23 12 101600 43
2012-06-13 10:05 51°31.271 2°52.486 -999 23 12.1 101600 44
2012-06-13 10:06 51°31.272 2°52.488 -999 26 12 101600 44
2012-06-13 10:07 51°31.272 2°52.489 -999 24 11.9 101600 44
2012-06-13 10:08 51°31.271 2°52.489 -999 29 11.8 101600 43
2012-06-13 10:09 51°31.272 2°52.489 -999 21 11.9 101610 43
2012-06-13 10:10 51°31.271 2°52.488 -999 20 11.8 101610 44
2012-06-13 10:11 51°31.271 2°52.487 -999 22 11.8 101600 44
2012-06-13 10:12 51°31.271 2°52.487 -999 22 11.8 101610 44
2012-06-13 10:13 51°31.271 2°52.487 -999 25 11.8 101610 44
2012-06-13 10:14 51°31.271 2°52.487 -999 20 11.9 101610 45
2012-06-13 10:15 51°31.271 2°52.486 -999 24 11.8 101610 45
2012-06-13 10:16 51°31.271 2°52.485 -999 28 11.9 101610 45
2012-06-13 10:17 51°31.27 2°52.484 -999 25 11.8 101610 43
2012-06-13 10:18 51°31.269 2°52.484 -999 22 11.8 101620 44
2012-06-13 10:19 51°31.27 2°52.483 -999 24 11.8 101610 44
2012-06-13 10:20 51°31.27 2°52.483 -999 26 11.8 101620 44
2012-06-13 10:21 51°31.27 2°52.483 -999 30 11.8 101620 44
2012-06-13 10:22 51°31.27 2°52.484 -999 25 11.9 101610 45
2012-06-13 10:23 51°31.27 2°52.485 -999 25 11.9 101620 44
2012-06-13 10:24 51°31.27 2°52.485 -999 20 11.8 101620 43
2012-06-13 10:25 51°31.27 2°52.485 -999 23 11.8 101620 41
2012-06-13 10:26 51°31.27 2°52.486 -999 23 11.9 101620 43
2012-06-13 10:27 51°31.27 2°52.485 -999 21 11.8 101620 43
2012-06-13 10:28 51°31.269 2°52.484 -999 21 11.8 101620 43
2012-06-13 10:29 51°31.269 2°52.481 -999 24 11.8 101620 43
2012-06-13 10:30 51°31.268 2°52.48 -999 26 11.8 101620 43
2012-06-13 10:31 51°31.268 2°52.48 -999 25 11.8 101620 43
2012-06-13 10:32 51°31.269 2°52.48 -999 22 11.8 101620 42
2012-06-13 10:33 51°31.269 2°52.481 -999 23 11.8 101630 41
2012-06-13 10:34 51°31.269 2°52.483 -999 29 11.8 101630 43
2012-06-13 10:35 51°31.262 2°52.477 -999 31 11.9 101630 43
2012-06-13 10:36 51°31.251 2°52.471 -999 42 11.8 101630 42
2012-06-13 10:37 51°31.238 2°52.472 -999 36 11.8 101630 42
2012-06-13 10:38 51°31.226 2°52.47 0.2 56 11.8 101620 42
2012-06-13 10:39 51°31.192 2°52.536 4.8 280 11.8 101650 42
2012-06-13 10:40 51°31.228 2°52.644 6.9 302 11.8 101630 42
2012-06-13 10:41 51°31.303 2°52.715 7.6 281 12 101630 41
2012-06-13 10:42 51°31.452 2°52.671 8.9 278 12 101620 41
2012-06-13 10:43 51°31.62 2°52.624 12.2 302 12 101630 42
2012-06-13 10:44 51°31.794 2°52.595 13 279 12 101620 41
2012-06-13 10:45 51°31.985 2°52.533 13.1 281 12.1 101630 43
2012-06-13 10:46 51°32.178 2°52.431 13 284 12.1 101630 41
2012-06-13 10:47 51°32.374 2°52.348 11.4 281 12.1 101630 43
2012-06-13 10:48 51°32.571 2°52.273 14.2 286 12.1 101620 42
2012-06-13 10:49 51°32.766 2°52.188 12.4 327 12.1 101630 39
2012-06-13 10:50 51°32.967 2°52.242 11.8 278 12.1 101630 41
2012-06-13 10:51 51°33.15 2°52.393 7.6 278 12.1 101630 42
2012-06-13 10:52 51°33.301 2°52.608 10.5 279 12 101620 41
2012-06-13 10:53 51°33.443 2°52.844 7.5 278 12 101620 42
2012-06-13 10:54 51°33.572 2°53.099 7 280 12 101630 41
2012-06-13 10:55 51°33.684 2°53.376 8.6 279 12 101620 42
2012-06-13 10:56 51°33.784 2°53.665 6.7 279 12.1 101640 42
2012-06-13 10:57 51°33.852 2°53.974 6 307 12 101630 40
2012-06-13 10:58 51°33.892 2°54.156 5.5 284 12.1 101650 42
2012-06-13 10:59 51°33.924 2°54.236 4.4 307 12.1 101650 41
2012-06-13 11:00 51°33.946 2°54.284 5.9 280 12.2 101640 42
2012-06-13 11:01 51°33.959 2°54.317 5.8 302 12.2 101640 42
2012-06-13 11:02 51°33.969 2°54.34 -999 282 12.2 101650 42
2012-06-13 11:03 51°33.977 2°54.357 -999 282 12.2 101650 41
2012-06-13 11:04 51°33.982 2°54.373 -999 282 12.2 101650 41
2012-06-13 11:05 51°33.985 2°54.388 -999 -999 12.3 101660 41
2012-06-13 11:06 51°33.986 2°54.401 -999 282 12.4 101650 42
2012-06-13 11:07 51°33.987 2°54.411 -999 282 12.4 101660 43
2012-06-13 11:08 51°33.986 2°54.42 -999 282 12.4 101660 42
2012-06-13 11:09 51°33.984 2°54.428 -999 282 12.5 101660 42
2012-06-13 11:10 51°33.982 2°54.434 -999 282 12.5 101660 42
2012-06-13 11:11 51°33.98 2°54.441 -999 305 12.4 101660 41
2012-06-13 11:12 51°33.978 2°54.447 -999 282 12.3 101660 42
2012-06-13 11:13 51°33.975 2°54.453 -999 282 12.2 101670 41
2012-06-13 11:14 51°33.971 2°54.459 -999 -999 12.2 101660 41
2012-06-13 11:15 51°33.968 2°54.465 -999 305 12.3 101660 42
2012-06-13 11:16 51°33.966 2°54.468 -999 282 12.4 101670 41
2012-06-13 11:17 51°33.963 2°54.472 -999 282 12.5 101670 42
2012-06-13 11:18 51°33.959 2°54.473 -999 282 12.4 101670 41
2012-06-13 11:19 51°33.955 2°54.474 -999 -999 12.3 101670 41
2012-06-13 11:20 51°33.951 2°54.475 -999 282 12.3 101670 42
2012-06-13 11:21 51°33.948 2°54.476 -999 -999 12.3 101670 41
2012-06-13 11:22 51°33.945 2°54.479 -999 82 12.2 101670 41
2012-06-13 11:23 51°33.943 2°54.482 -999 -999 12.2 101680 42
2012-06-13 11:24 51°33.94 2°54.486 -999 282 12.1 101670 41
2012-06-13 11:25 51°33.936 2°54.49 -999 282 12.1 101670 42
2012-06-13 11:26 51°33.934 2°54.493 -999 282 12.2 101680 42
2012-06-13 11:27 51°33.931 2°54.496 -999 305 12.1 101680 40
2012-06-13 11:28 51°33.928 2°54.499 -999 282 12.1 101670 41
2012-06-13 11:29 51°33.924 2°54.501 -999 305 12.1 101680 39
2012-06-13 11:30 51°33.92 2°54.502 -999 282 12.2 101680 41
2012-06-13 11:31 51°33.917 2°54.503 -999 305 12.2 101680 42
2012-06-13 11:32 51°33.913 2°54.503 -999 -999 12.3 101680 42
2012-06-13 11:33 51°33.91 2°54.503 -999 282 12.5 101680 43
2012-06-13 11:34 51°33.907 2°54.502 -999 -999 12.4 101680 42
2012-06-13 11:35 51°33.903 2°54.501 -999 282 12.4 101680 43
2012-06-13 11:36 51°33.9 2°54.501 -999 282 12.3 101680 42
2012-06-13 11:37 51°33.896 2°54.501 -999 -999 12.3 101670 41
2012-06-13 11:38 51°33.891 2°54.501 -999 282 12.3 101680 43
2012-06-13 11:39 51°33.889 2°54.5 -999 282 12.2 101670 41
2012-06-13 11:40 51°33.886 2°54.498 -999 281 12.1 101680 41
2012-06-13 11:41 51°33.882 2°54.497 -999 305 12.3 101670 43
2012-06-13 11:42 51°33.878 2°54.493 -999 281 12.2 101680 42
2012-06-13 11:43 51°33.873 2°54.49 -999 299 12.2 101680 42
2012-06-13 11:44 51°33.869 2°54.487 -999 282 12.2 101680 42
2012-06-13 11:45 51°33.864 2°54.483 -999 -999 12.2 101680 40
2012-06-13 11:46 51°33.861 2°54.479 -999 282 12.2 101670 42
2012-06-13 11:47 51°33.857 2°54.475 -999 -999 12.2 101680 42
2012-06-13 11:48 51°33.853 2°54.472 -999 281 12.2 101690 42
2012-06-13 11:49 51°33.85 2°54.468 -999 -999 12.2 101690 42
2012-06-13 11:50 51°33.846 2°54.465 -999 282 12.2 101680 42
2012-06-13 11:51 51°33.842 2°54.466 -999 -999 12.3 101680 42
2012-06-13 11:52 51°33.842 2°54.47 -999 282 12.3 101680 41
2012-06-13 11:53 51°33.841 2°54.477 -999 -999 12.4 101680 41
2012-06-13 11:54 51°33.843 2°54.483 -999 281 12.6 101690 42
2012-06-13 11:55 51°33.846 2°54.491 -999 -999 12.6 101690 41
2012-06-13 11:56 51°33.847 2°54.496 -999 282 12.6 101690 42
2012-06-13 11:57 51°33.846 2°54.498 -999 -999 12.7 101690 42
2012-06-13 11:58 51°33.844 2°54.498 -999 282 12.7 101690 41
2012-06-13 11:59 51°33.842 2°54.498 -999 -999 12.7 101690 41
2012-06-13 12:00 51°33.841 2°54.501 -999 282 12.6 101690 40
2012-06-13 12:01 51°33.843 2°54.506 -999 282 12.7 101680 41
2012-06-13 12:02 51°33.849 2°54.52 -999 282 12.8 101680 41
2012-06-13 12:03 51°33.861 2°54.534 -999 -999 12.7 101680 40
2012-06-13 12:04 51°33.867 2°54.54 -999 282 12.7 101680 41
2012-06-13 12:05 51°33.868 2°54.543 -999 -999 12.6 101680 41
2012-06-13 12:06 51°33.866 2°54.543 -999 282 12.6 101680 41
2012-06-13 12:07 51°33.861 2°54.541 -999 -999 12.5 101690 41
2012-06-13 12:08 51°33.855 2°54.535 -999 282 12.5 101690 41
2012-06-13 12:09 51°33.847 2°54.526 -999 -999 12.5 101690 41
2012-06-13 12:10 51°33.838 2°54.515 -999 286 12.5 101690 41
2012-06-13 12:11 51°33.83 2°54.512 -999 -999 12.3 101690 41
2012-06-13 12:12 51°33.824 2°54.516 -999 282 12.2 101690 41
2012-06-13 12:13 51°33.822 2°54.522 -999 -999 12.2 101690 41
2012-06-13 12:14 51°33.821 2°54.531 -999 282 12.3 101700 42
2012-06-13 12:15 51°33.839 2°54.569 -999 -999 12.3 101700 41
2012-06-13 12:16 51°33.935 2°54.643 -999 -999 12.4 101670 41
2012-06-13 12:17 51°34.043 2°54.749 -999 -999 12.3 101670 41
2012-06-13 12:18 51°34.095 2°54.883 -999 -999 12.2 101700 41
2012-06-13 12:19 51°34.092 2°54.957 -999 78 12.3 101710 41
2012-06-13 12:20 51°34.084 2°55.002 -999 282 12.2 101700 40
2012-06-13 12:21 51°34.078 2°55.029 -999 305 12.1 101700 41
2012-06-13 12:22 51°34.074 2°55.043 -999 282 12.2 101690 42
2012-06-13 12:23 51°34.071 2°55.045 -999 -999 12.2 101700 42
2012-06-13 12:24 51°34.066 2°55.044 -999 282 12.3 101700 41
2012-06-13 12:25 51°34.061 2°55.04 -999 -999 12.4 101700 41
2012-06-13 12:26 51°34.056 2°55.034 -999 281 12.5 101690 42
2012-06-13 12:27 51°34.049 2°55.027 -999 -999 12.6 101700 42
2012-06-13 12:28 51°34.041 2°55.017 -999 305 12.6 101700 41
2012-06-13 12:29 51°34.032 2°55.006 -999 -999 12.6 101700 40
2012-06-13 12:30 51°34.021 2°54.993 -999 305 12.6 101700 40
2012-06-13 12:31 51°34.01 2°54.979 -999 -999 12.6 101700 41
2012-06-13 12:32 51°34 2°54.964 -999 281 12.7 101710 42
2012-06-13 12:33 51°33.989 2°54.949 -999 282 12.6 101710 41
2012-06-13 12:34 51°33.978 2°54.933 -999 277 12.5 101710 41
2012-06-13 12:35 51°33.968 2°54.918 -999 -999 12.4 101710 40
2012-06-13 12:36 51°33.956 2°54.902 -999 78 12.3 101710 41
2012-06-13 12:37 51°33.944 2°54.887 -999 282 12.3 101720 41
2012-06-13 12:38 51°33.934 2°54.871 -999 79 12.2 101710 40
2012-06-13 12:39 51°33.922 2°54.855 -999 282 12.2 101710 41
2012-06-13 12:40 51°33.911 2°54.839 -999 282 12.2 101720 41
2012-06-13 12:41 51°33.9 2°54.823 -999 282 12.2 101710 41
2012-06-13 12:42 51°33.888 2°54.808 -999 282 12.2 101710 41
2012-06-13 12:43 51°33.876 2°54.793 -999 282 12.2 101720 41
2012-06-13 12:44 51°33.865 2°54.779 -999 281 12.3 101720 42
2012-06-13 12:45 51°33.854 2°54.765 -999 305 12.3 101720 42
2012-06-13 12:46 51°33.842 2°54.75 -999 282 12.4 101720 43
2012-06-13 12:47 51°33.831 2°54.736 -999 305 12.3 101720 43
2012-06-13 12:48 51°33.818 2°54.722 -999 305 12.2 101720 43
2012-06-13 12:49 51°33.806 2°54.707 -999 282 12.3 101720 41
2012-06-13 12:50 51°33.792 2°54.691 -999 281 12.3 101730 42
2012-06-13 12:51 51°33.779 2°54.675 -999 282 12.3 101720 42
2012-06-13 12:52 51°33.764 2°54.658 -999 282 12.4 101730 42
2012-06-13 12:53 51°33.751 2°54.641 -999 282 12.4 101720 42
2012-06-13 12:54 51°33.737 2°54.625 -999 282 12.2 101720 41
2012-06-13 12:55 51°33.725 2°54.608 -999 282 12.2 101730 41
2012-06-13 12:56 51°33.712 2°54.596 -999 281 12.3 101720 42
2012-06-13 12:57 51°33.704 2°54.604 -999 282 12.2 101730 39
2012-06-13 12:58 51°33.704 2°54.622 -999 281 12.4 101720 42
2012-06-13 12:59 51°33.707 2°54.636 -999 281 12.5 101720 42
2012-06-13 13:00 51°33.706 2°54.642 -999 281 12.5 101720 40
2012-06-13 13:01 51°33.704 2°54.641 -999 305 12.6 101720 41
2012-06-13 13:02 51°33.699 2°54.638 -999 281 12.6 101720 40
2012-06-13 13:03 51°33.693 2°54.632 -999 305 12.7 101720 40
2012-06-13 13:04 51°33.686 2°54.626 -999 281 12.7 101720 39
2012-06-13 13:05 51°33.685 2°54.627 -999 305 12.7 101720 38
2012-06-13 13:06 51°33.692 2°54.63 -999 281 12.7 101720 39
2012-06-13 13:07 51°33.698 2°54.632 -999 305 12.7 101710 39
2012-06-13 13:08 51°33.699 2°54.631 -999 281 12.7 101720 39
2012-06-13 13:09 51°33.7 2°54.627 -999 305 12.6 101720 39
2012-06-13 13:10 51°33.699 2°54.624 -999 281 12.7 101710 39
2012-06-13 13:11 51°33.695 2°54.623 -999 305 12.7 101720 39
2012-06-13 13:12 51°33.689 2°54.625 -999 282 12.8 101720 40
2012-06-13 13:13 51°33.684 2°54.642 -999 282 12.8 101720 38
2012-06-13 13:14 51°33.686 2°54.66 -999 282 12.8 101720 39
2012-06-13 13:15 51°12.199 2°53.338 -999 26 12 101370 40
2012-06-13 13:16 51°33.683 2°54.666 -999 305 12.8 101720 38
2012-06-13 13:17 51°33.679 2°54.667 -999 305 12.8 101710 38
2012-06-13 13:18 51°33.674 2°54.662 -999 305 12.8 101720 38
2012-06-13 13:19 51°33.704 2°54.667 -999 326 12.8 101710 38
2012-06-13 13:20 51°33.786 2°54.588 -999 334 12.6 101710 38
2012-06-13 13:21 51°33.848 2°54.419 -999 350 12.5 101720 38
2012-06-13 13:22 51°33.848 2°54.158 -999 351 12.2 101720 39
2012-06-13 13:23 51°33.819 2°53.862 8.5 357 12.1 101710 41
2012-06-13 13:24 51°33.758 2°53.571 8.4 354 11.9 101710 40
2012-06-13 13:25 51°33.666 2°53.3 5.9 351 11.9 101710 41
2012-06-13 13:26 51°33.569 2°53.033 4.5 351 11.8 101720 42
2012-06-13 13:27 51°33.475 2°52.763 4.9 358 11.7 101720 42
2012-06-13 13:28 51°33.385 2°52.487 5 359 11.7 101710 41
2012-06-13 13:29 51°33.306 2°52.202 4.4 356 11.7 101720 42
2012-06-13 13:30 51°33.202 2°51.945 1.2 2 11.7 101720 42
2012-06-13 13:31 51°33.038 2°51.81 -999 358 11.8 101730 42
2012-06-13 13:32 51°32.851 2°51.783 -999 345 11.9 101740 43
2012-06-13 13:32 51°32.664 2°51.782 -999 354 11.9 101740 43
2012-06-13 13:33 51°32.473 2°51.762 -999 359 12 101740 41
2012-06-13 13:35 51°32.279 2°51.737 -999 354 12 101740 42
2012-06-13 13:36 51°32.088 2°51.716 -999 349 12 101740 42
2012-06-13 13:37 51°31.898 2°51.697 -999 330 12.1 101750 43
2012-06-13 13:37 51°31.713 2°51.691 -999 335 12.3 101740 43
2012-06-13 13:38 51°31.524 2°51.679 -999 341 12.4 101740 41
2012-06-13 13:40 51°31.329 2°51.651 -999 342 12.5 101740 42
2012-06-13 13:41 51°31.134 2°51.67 0.1 323 12.6 101740 43
2012-06-13 13:42 51°30.919 2°51.713 -999 335 12.7 101740 42
2012-06-13 13:43 51°30.703 2°51.732 -999 330 12.6 101750 41
2012-06-13 13:44 51°30.484 2°51.744 -999 338 12.7 101740 41
2012-06-13 13:45 51°30.266 2°51.757 -999 333 12.8 101740 41
2012-06-13 13:46 51°30.049 2°51.76 -999 338 12.9 101740 42
2012-06-13 13:47 51°29.834 2°51.774 -999 344 12.8 101740 41
2012-06-13 13:48 51°29.618 2°51.782 -999 344 12.8 101740 41
2012-06-13 13:49 51°29.402 2°51.787 -999 340 12.7 101750 40
2012-06-13 13:50 51°29.185 2°51.777 -999 339 12.6 101750 41
2012-06-13 13:51 51°28.967 2°51.789 -999 344 12.5 101740 41
2012-06-13 13:52 51°28.75 2°51.798 -999 333 12.5 101750 41
2012-06-13 13:53 51°28.536 2°51.814 -999 330 12.6 101740 42
2012-06-13 13:54 51°28.323 2°51.813 -999 345 12.7 101750 41
2012-06-13 13:55 51°28.109 2°51.842 0.1 336 12.8 101750 42
2012-06-13 13:56 51°27.898 2°51.873 -999 281 12.9 101750 42
2012-06-13 13:57 51°27.689 2°51.91 -999 339 12.7 101740 40
2012-06-13 13:58 51°27.477 2°51.946 -999 337 12.6 101740 42
2012-06-13 13:59 51°27.267 2°51.986 -999 337 12.6 101750 41
2012-06-13 14:00 51°27.054 2°52.011 0.1 342 12.6 101740 41
2012-06-13 14:01 51°26.841 2°52.038 -999 332 12.5 101740 41
2012-06-13 14:02 51°26.648 2°52.144 0.1 305 12.6 101740 42
2012-06-13 14:03 51°26.499 2°52.315 -999 305 12.6 101740 42
2012-06-13 14:04 51°26.423 2°52.332 0.1 55 12.7 101750 42
2012-06-13 14:05 51°26.394 2°52.316 -999 55 12.6 101750 40
2012-06-13 14:06 51°26.371 2°52.297 1.9 306 12.5 101750 41
2012-06-13 14:07 51°26.351 2°52.272 -999 282 12.5 101750 42
2012-06-13 14:08 51°26.333 2°52.239 -999 310 12.4 101750 41
2012-06-13 14:09 51°26.309 2°52.231 -999 55 12.5 101750 42
2012-06-13 14:10 51°26.248 2°52.26 -999 55 12.5 101750 41
2012-06-13 14:11 51°26.102 2°52.307 -999 347 12.4 101750 42
2012-06-13 14:12 51°25.924 2°52.35 -999 344 12.6 101750 42
2012-06-13 14:13 51°25.727 2°52.395 -999 345 12.7 101750 41
2012-06-13 14:14 51°25.521 2°52.368 -999 357 12.6 101750 41
2012-06-13 14:15 51°25.315 2°52.323 -999 353 12.5 101750 42
2012-06-13 14:16 51°25.106 2°52.283 -999 345 12.4 101750 41
2012-06-13 14:17 51°24.897 2°52.271 -999 342 12.3 101750 41
2012-06-13 14:18 51°24.684 2°52.257 -999 348 12.4 101750 42
2012-06-13 14:19 51°24.471 2°52.226 -999 352 12.4 101750 42
2012-06-13 14:20 51°24.257 2°52.199 -999 350 12.4 101750 41
2012-06-13 14:21 51°24.044 2°52.167 -999 358 12.4 101750 40
2012-06-13 14:22 51°23.829 2°52.137 -999 358 12.3 101750 41
2012-06-13 14:23 51°23.618 2°52.104 -999 345 12.3 101750 41
2012-06-13 14:24 51°23.399 2°52.067 -999 341 12.4 101750 41
2012-06-13 14:25 51°23.177 2°52.034 -999 343 12.5 101750 40
2012-06-13 14:26 51°22.955 2°52.015 -999 335 12.5 101750 40
2012-06-13 14:27 51°22.735 2°51.992 -999 336 12.6 101750 39
2012-06-13 14:28 51°22.516 2°51.968 -999 335 12.6 101750 39
2012-06-13 14:29 51°22.296 2°51.929 -999 343 12.7 101750 38
2012-06-13 14:30 51°22.077 2°51.908 -999 337 12.7 101750 38
2012-06-13 14:31 51°21.857 2°51.88 -999 345 12.7 101760 39
2012-06-13 14:32 51°21.64 2°51.85 -999 336 12.7 101760 38
2012-06-13 14:33 51°21.424 2°51.84 -999 334 12.8 101760 39
2012-06-13 14:34 51°21.206 2°51.824 -999 333 12.9 101760 39
2012-06-13 14:35 51°20.99 2°51.803 -999 334 13.1 101760 40
2012-06-13 14:36 51°20.772 2°51.79 -999 330 13.2 101760 40
2012-06-13 14:37 51°20.557 2°51.786 -999 336 13.3 101760 40
2012-06-13 14:38 51°20.338 2°51.789 -999 330 13.4 101770 40
2012-06-13 14:39 51°20.127 2°51.788 -999 348 13.4 101760 41
2012-06-13 14:40 51°19.91 2°51.765 -999 346 13.3 101760 39
2012-06-13 14:41 51°19.696 2°51.77 -999 342 13 101770 39
2012-06-13 14:42 51°19.487 2°51.822 -999 341 13 101770 41
2012-06-13 14:43 51°19.282 2°51.895 -999 340 13 101770 40
2012-06-13 14:44 51°19.079 2°51.972 0.4 302 12.9 101770 39
2012-06-13 14:45 51°18.876 2°52.04 -999 305 13.1 101770 39
2012-06-13 14:46 51°18.67 2°52.102 -999 330 13.1 101770 40
2012-06-13 14:47 51°18.462 2°52.158 -999 281 13.1 101780 40
2012-06-13 14:48 51°18.254 2°52.218 -999 305 13.1 101770 40
2012-06-13 14:49 51°18.045 2°52.278 -999 281 13.3 101770 41
2012-06-13 14:50 51°17.838 2°52.341 -999 281 13.2 101780 39
2012-06-13 14:51 51°17.632 2°52.424 -999 281 13.1 101770 40
2012-06-13 14:52 51°17.43 2°52.524 0.1 281 13.1 101770 40
2012-06-13 14:53 51°17.229 2°52.624 0.1 281 13.1 101780 39
2012-06-13 14:54 51°17.031 2°52.734 -999 281 13 101780 39
2012-06-13 14:55 51°16.838 2°52.848 -999 281 13 101780 39
2012-06-13 14:56 51°16.641 2°52.966 -999 281 13.1 101780 40
2012-06-13 14:57 51°16.454 2°53.085 -999 332 13.2 101780 42
2012-06-13 14:58 51°16.273 2°53.22 -999 326 13.2 101780 41
2012-06-13 14:59 51°16.085 2°53.333 -999 281 13.1 101780 40
2012-06-13 15:00 51°15.897 2°53.453 -999 281 13.1 101780 39
2012-06-13 15:01 51°15.718 2°53.589 -999 281 13.2 101780 39
2012-06-13 15:02 51°15.541 2°53.728 0.1 305 13.3 101780 41
2012-06-13 15:03 51°15.366 2°53.871 -999 305 13.3 101780 40
2012-06-13 15:04 51°15.202 2°54.038 -999 281 13.2 101780 40
2012-06-13 15:05 51°15.051 2°54.227 -999 305 13.1 101780 41
2012-06-13 15:06 51°14.908 2°54.43 -999 281 13 101780 40
2012-06-13 15:07 51°14.767 2°54.637 -999 305 13.1 101770 40
2012-06-13 15:08 51°14.622 2°54.845 -999 281 13 101780 40
2012-06-13 15:09 51°14.482 2°55.053 -999 305 13 101780 39
2012-06-13 15:10 51°14.319 2°55.246 -999 281 13 101780 40
2012-06-13 15:11 51°14.167 2°55.382 -999 305 13 101780 41
2012-06-13 15:12 51°14.056 2°55.463 -999 79 13.1 101780 42
2012-06-13 15:13 51°13.968 2°55.528 -999 305 13.2 101780 41
2012-06-13 15:14 51°13.864 2°55.6 -999 305 13.2 101780 41
2012-06-13 15:15 51°13.779 2°55.681 -999 281 13.3 101780 42
2012-06-13 15:16 51°13.712 2°55.789 -999 305 13.4 101780 41
2012-06-13 15:17 51°13.664 2°55.898 -999 281 13.5 101780 39
2012-06-13 15:18 51°13.637 2°55.985 -999 305 13.6 101780 41
2012-06-13 15:19 51°13.634 2°56.007 0.1 79 13.7 101780 40
2012-06-13 15:20 51°13.632 2°56.013 -999 57 13.6 101780 40